Time;durP1;ratioP1;P1;durP2;ratioP2;P2;SDS_P1;SDS_P2;PMS_P1;PMS_P2;Temp;Humidity;BMP_temperature;BMP_pressure;BME280_temperature;BME280_humidity;BME280_pressure;Samples;Min_cycle;Max_cycle;Signal;HPM_P1;HPM_P2
2021/03/04 00:00:30;;;;;;;33.10;15.90;;;9.80;99.90;;;;;;5012985;28;20030;-65
2021/03/04 00:02:56;;;;;;;35.10;14.52;;;9.80;99.90;;;;;;5012064;28;20114;-65
2021/03/04 00:05:22;;;;;;;29.88;14.35;;;9.70;99.90;;;;;;5012325;28;20128;-64
2021/03/04 00:07:48;;;;;;;34.60;14.65;;;9.70;99.90;;;;;;5012998;28;20029;-64
2021/03/04 00:10:20;;;;;;;30.73;14.70;;;9.70;99.90;;;;;;5013013;28;20038;-65
2021/03/04 00:12:47;;;;;;;31.52;14.85;;;9.70;99.90;;;;;;5012712;28;20551;-65
2021/03/04 00:15:16;;;;;;;34.45;14.98;;;9.70;99.90;;;;;;5011373;28;20423;-65
2021/03/04 00:17:43;;;;;;;32.78;14.38;;;9.70;99.90;;;;;;5012850;28;20045;-64
2021/03/04 00:20:13;;;;;;;40.00;14.57;;;9.70;99.90;;;;;;5011587;28;20041;-64
2021/03/04 00:22:40;;;;;;;34.43;15.33;;;9.70;99.90;;;;;;5012751;28;20064;-65
2021/03/04 00:25:08;;;;;;;28.45;14.35;;;9.70;99.90;;;;;;5012437;28;20297;-66
2021/03/04 00:27:34;;;;;;;38.42;14.25;;;9.70;99.90;;;;;;5012290;28;20026;-66
2021/03/04 00:30:00;;;;;;;34.25;14.15;;;9.70;99.90;;;;;;5011568;28;20455;-64
2021/03/04 00:32:25;;;;;;;33.97;14.18;;;9.70;99.90;;;;;;5011324;28;20033;-65
2021/03/04 00:34:51;;;;;;;33.70;14.93;;;9.60;99.90;;;;;;5012700;28;20457;-65
2021/03/04 00:37:18;;;;;;;33.28;15.32;;;9.60;99.90;;;;;;5012702;28;20018;-65
2021/03/04 00:39:43;;;;;;;28.63;14.95;;;9.60;99.90;;;;;;5012202;28;20037;-64
2021/03/04 00:42:10;;;;;;;30.73;13.93;;;9.50;99.90;;;;;;5012669;28;20034;-65
2021/03/04 00:44:36;;;;;;;36.72;13.93;;;9.50;99.90;;;;;;5012448;28;20046;-64
2021/03/04 00:47:04;;;;;;;29.25;13.52;;;9.50;99.90;;;;;;5011189;28;20026;-64
2021/03/04 00:49:29;;;;;;;33.20;14.93;;;9.50;99.90;;;;;;5011021;28;20391;-64
2021/03/04 00:51:56;;;;;;;31.58;14.70;;;9.50;99.90;;;;;;5011428;28;20026;-64
2021/03/04 00:54:22;;;;;;;28.55;14.20;;;9.50;99.90;;;;;;5012602;28;20103;-64
2021/03/04 00:56:47;;;;;;;34.83;14.43;;;9.50;99.90;;;;;;5012476;28;20073;-64
2021/03/04 00:59:13;;;;;;;27.75;13.82;;;9.50;99.90;;;;;;5012726;28;20479;-64
2021/03/04 01:01:39;;;;;;;36.53;14.50;;;9.50;99.90;;;;;;5012351;28;20026;-64
2021/03/04 01:04:05;;;;;;;27.98;14.23;;;9.50;99.90;;;;;;5011053;28;20038;-65
2021/03/04 01:06:31;;;;;;;34.03;14.00;;;9.40;99.90;;;;;;5011038;28;20505;-64
2021/03/04 01:08:56;;;;;;;32.67;14.68;;;9.50;99.90;;;;;;5011213;28;20038;-65
2021/03/04 01:11:22;;;;;;;32.08;14.52;;;9.40;99.90;;;;;;5012493;28;20426;-65
2021/03/04 01:13:48;;;;;;;32.15;14.60;;;9.50;99.90;;;;;;5012254;28;20040;-64
2021/03/04 01:16:14;;;;;;;34.97;15.98;;;9.50;99.90;;;;;;5013232;28;20037;-64
2021/03/04 01:18:39;;;;;;;34.95;15.23;;;9.50;99.90;;;;;;5016259;28;20030;-64
2021/03/04 01:21:06;;;;;;;33.38;14.75;;;9.50;99.90;;;;;;5016159;28;20026;-65
2021/03/04 01:23:32;;;;;;;29.75;14.35;;;9.50;99.90;;;;;;5015849;28;20026;-64
2021/03/04 01:25:58;;;;;;;39.85;15.23;;;9.50;99.90;;;;;;5014648;28;20074;-64
2021/03/04 01:28:25;;;;;;;34.20;14.85;;;9.50;99.90;;;;;;5015793;28;20478;-64
2021/03/04 01:30:52;;;;;;;35.47;15.05;;;9.50;99.90;;;;;;5015904;28;20394;-65
2021/03/04 01:33:18;;;;;;;31.55;14.13;;;9.50;99.90;;;;;;5014719;28;20026;-64
2021/03/04 01:35:45;;;;;;;36.75;14.88;;;9.50;99.90;;;;;;5015859;28;20034;-64
2021/03/04 01:38:12;;;;;;;35.95;15.52;;;9.50;99.90;;;;;;5015915;28;20050;-64
2021/03/04 01:40:39;;;;;;;29.33;14.80;;;9.40;99.90;;;;;;5015371;28;20041;-65
2021/03/04 01:43:05;;;;;;;32.05;14.73;;;9.40;99.90;;;;;;5015499;28;20136;-65
2021/03/04 01:45:31;;;;;;;31.40;15.77;;;9.30;99.90;;;;;;5015503;28;20487;-65
2021/03/04 01:47:57;;;;;;;30.27;14.82;;;9.30;99.90;;;;;;5015686;28;20030;-64
2021/03/04 01:50:25;;;;;;;38.17;16.02;;;9.20;99.90;;;;;;5014141;28;20109;-65
2021/03/04 01:52:52;;;;;;;30.75;15.77;;;9.20;99.90;;;;;;5015137;28;20041;-64
2021/03/04 01:55:19;;;;;;;34.35;16.08;;;9.10;99.90;;;;;;5015267;28;20038;-65
2021/03/04 01:57:46;;;;;;;32.85;16.13;;;9.10;99.90;;;;;;5014094;28;20025;-65
2021/03/04 02:00:15;;;;;;;35.80;15.93;;;9.10;99.90;;;;;;5015202;28;20108;-65
2021/03/04 02:02:41;;;;;;;32.53;15.38;;;9.00;99.90;;;;;;5015099;28;20498;-64
2021/03/04 02:05:13;;;;;;;32.22;16.42;;;9.00;99.90;;;;;;5015290;28;20570;-65
2021/03/04 02:07:42;;;;;;;38.00;15.32;;;9.00;99.90;;;;;;5015425;28;20053;-65
2021/03/04 02:10:26;;;;;;;36.72;17.45;;;9.00;99.90;;;;;;5015303;28;20116;-65
2021/03/04 02:13:18;;;;;;;34.63;16.27;;;8.90;99.90;;;;;;5013972;28;20034;-65
2021/03/04 02:15:47;;;;;;;33.92;16.20;;;8.90;99.90;;;;;;5014304;28;20500;-65
2021/03/04 02:18:17;;;;;;;38.28;17.10;;;8.90;99.90;;;;;;5014020;28;20041;-65
2021/03/04 02:21:13;;;;;;;35.53;15.98;;;8.80;99.90;;;;;;5013530;28;20034;-65
2021/03/04 02:24:22;;;;;;;34.38;16.55;;;8.80;99.90;;;;;;5014578;28;20045;-65
2021/03/04 02:27:14;;;;;;;32.78;15.32;;;8.80;99.90;;;;;;5014133;28;20054;-65
2021/03/04 02:29:45;;;;;;;32.88;15.88;;;8.70;99.90;;;;;;5014806;28;20026;-65
2021/03/04 02:32:12;;;;;;;40.17;16.85;;;8.60;99.90;;;;;;5013383;28;20026;-64
2021/03/04 02:35:00;;;;;;;35.40;15.45;;;8.60;99.90;;;;;;5013504;28;20109;-64
2021/03/04 02:37:32;;;;;;;32.20;14.98;;;8.70;99.90;;;;;;5013249;28;20038;-65
2021/03/04 02:40:01;;;;;;;33.97;15.00;;;8.70;99.90;;;;;;5013263;28;20026;-65
2021/03/04 02:42:27;;;;;;;31.50;15.10;;;8.70;99.90;;;;;;5013150;28;20402;-65
2021/03/04 02:44:58;;;;;;;35.42;15.88;;;8.60;99.90;;;;;;5014520;28;20076;-65
2021/03/04 02:47:25;;;;;;;31.37;15.10;;;8.50;99.90;;;;;;5014718;28;20065;-65
2021/03/04 02:49:51;;;;;;;31.15;15.27;;;8.40;99.90;;;;;;5014264;28;20520;-65
2021/03/04 02:52:19;;;;;;;37.42;15.80;;;8.40;99.90;;;;;;5013333;28;20041;-64
2021/03/04 02:54:47;;;;;;;31.45;15.20;;;8.30;99.90;;;;;;5013147;28;20101;-64
2021/03/04 02:57:14;;;;;;;37.88;16.10;;;8.30;99.90;;;;;;5013321;28;20065;-64
2021/03/04 02:59:43;;;;;;;33.45;15.77;;;8.30;99.90;;;;;;5012969;28;20042;-64
2021/03/04 03:02:10;;;;;;;41.03;17.08;;;8.20;99.90;;;;;;5014334;28;20062;-64
2021/03/04 03:04:38;;;;;;;34.42;16.60;;;8.30;99.90;;;;;;5012893;28;20560;-64
2021/03/04 03:07:07;;;;;;;34.65;15.45;;;8.20;99.90;;;;;;5014248;28;20113;-63
2021/03/04 03:09:34;;;;;;;33.60;16.90;;;8.20;99.90;;;;;;5013868;28;20383;-64
2021/03/04 03:12:01;;;;;;;29.77;15.13;;;8.20;99.90;;;;;;5012708;28;20030;-64
2021/03/04 03:14:29;;;;;;;32.08;15.57;;;8.10;99.90;;;;;;5012984;28;20037;-65
2021/03/04 03:16:54;;;;;;;44.58;16.63;;;8.10;99.90;;;;;;5013990;28;20360;-65
2021/03/04 03:19:20;;;;;;;38.13;17.00;;;8.00;99.90;;;;;;5013611;28;20045;-65
2021/03/04 03:21:47;;;;;;;39.03;16.88;;;8.00;99.90;;;;;;4995961;28;20120;-65
2021/03/04 03:24:13;;;;;;;37.60;15.73;;;7.90;99.90;;;;;;5013770;28;20034;-65
2021/03/04 03:26:38;;;;;;;35.83;16.45;;;7.80;99.90;;;;;;5013537;28;20232;-65
2021/03/04 03:29:05;;;;;;;33.33;16.55;;;7.80;99.90;;;;;;5014046;28;20029;-64
2021/03/04 03:31:32;;;;;;;29.60;14.65;;;7.80;99.90;;;;;;5013420;28;20109;-64
2021/03/04 03:33:59;;;;;;;33.50;15.15;;;7.80;99.90;;;;;;5012419;28;20129;-65
2021/03/04 03:36:26;;;;;;;32.70;15.13;;;7.90;99.90;;;;;;4993570;28;20057;-64
2021/03/04 03:38:53;;;;;;;34.75;14.52;;;8.00;99.90;;;;;;5011806;28;20036;-65
2021/03/04 03:41:22;;;;;;;27.70;13.70;;;8.00;99.90;;;;;;4994554;28;20390;-64
2021/03/04 03:43:49;;;;;;;32.40;15.25;;;8.00;99.90;;;;;;4995587;28;20105;-64
2021/03/04 03:46:15;;;;;;;34.30;15.43;;;7.90;99.90;;;;;;4995826;28;20121;-64
2021/03/04 03:48:43;;;;;;;30.85;14.68;;;7.90;99.90;;;;;;5013524;28;20030;-64
2021/03/04 03:51:09;;;;;;;29.60;14.50;;;7.90;99.90;;;;;;4996164;28;20034;-64
2021/03/04 03:53:35;;;;;;;29.45;14.65;;;7.90;99.90;;;;;;4995998;28;20033;-65
2021/03/04 03:56:02;;;;;;;30.13;13.63;;;7.90;99.90;;;;;;5013363;28;20036;-65
2021/03/04 03:58:29;;;;;;;35.85;15.82;;;7.90;99.90;;;;;;5013465;28;20042;-64
2021/03/04 04:00:56;;;;;;;25.13;14.40;;;7.90;99.90;;;;;;4995518;28;20533;-65
2021/03/04 04:03:24;;;;;;;31.45;14.48;;;7.90;99.90;;;;;;4995955;28;20116;-64
2021/03/04 04:05:50;;;;;;;33.22;15.18;;;7.90;99.90;;;;;;4995330;28;20558;-64
2021/03/04 04:08:19;;;;;;;28.75;14.30;;;7.90;99.90;;;;;;5013281;28;20479;-64
2021/03/04 04:10:47;;;;;;;28.52;14.43;;;7.90;99.90;;;;;;5012900;28;20042;-65
2021/03/04 04:13:18;;;;;;;32.47;15.77;;;7.90;99.90;;;;;;5012862;28;20045;-65
2021/03/04 04:15:43;;;;;;;38.28;15.18;;;7.90;99.90;;;;;;5012995;28;20037;-65
2021/03/04 04:18:11;;;;;;;28.08;13.20;;;7.90;99.90;;;;;;4995271;28;20038;-65
2021/03/04 04:20:38;;;;;;;27.73;13.60;;;7.80;99.90;;;;;;4995424;28;20426;-65
2021/03/04 04:23:06;;;;;;;30.27;14.93;;;7.90;99.90;;;;;;4995497;28;20121;-64
2021/03/04 04:25:45;;;;;;;27.13;12.63;;;7.90;99.90;;;;;;4995328;28;20070;-64
2021/03/04 04:28:11;;;;;;;33.53;13.70;;;7.90;99.90;;;;;;4995929;28;20416;-64
2021/03/04 04:30:36;;;;;;;23.38;12.85;;;7.80;99.90;;;;;;5012749;28;20044;-64
2021/03/04 04:33:02;;;;;;;27.02;12.88;;;7.80;99.90;;;;;;5012762;28;20026;-65
2021/03/04 04:35:28;;;;;;;24.70;13.30;;;7.80;99.90;;;;;;5012401;28;20033;-65
2021/03/04 04:37:54;;;;;;;25.95;12.77;;;7.80;99.90;;;;;;4995068;28;20036;-65
2021/03/04 04:40:19;;;;;;;24.20;12.27;;;7.80;99.90;;;;;;5012432;28;20109;-64
2021/03/04 04:42:45;;;;;;;26.10;13.35;;;7.80;99.90;;;;;;5012172;28;20068;-65
2021/03/04 04:45:11;;;;;;;29.75;12.48;;;7.80;99.90;;;;;;4994705;28;20073;-65
2021/03/04 04:47:37;;;;;;;30.95;14.20;;;7.80;99.90;;;;;;5012233;28;20061;-65
2021/03/04 04:50:04;;;;;;;31.00;12.93;;;7.80;99.90;;;;;;4961206;28;20073;-64
2021/03/04 04:52:30;;;;;;;30.95;12.88;;;7.80;99.90;;;;;;5011025;28;20092;-64
2021/03/04 04:54:55;;;;;;;25.98;12.20;;;7.80;99.90;;;;;;4998022;28;20042;-66
2021/03/04 04:57:22;;;;;;;27.27;12.65;;;7.80;99.90;;;;;;4992835;28;20027;-66
2021/03/04 04:59:49;;;;;;;27.10;12.05;;;7.90;99.90;;;;;;4993448;28;20042;-70
2021/03/04 05:02:15;;;;;;;27.13;12.95;;;7.80;99.90;;;;;;5002697;28;20029;-69
2021/03/04 05:04:41;;;;;;;32.70;12.13;;;7.90;99.90;;;;;;5011521;28;20042;-69
2021/03/04 05:07:06;;;;;;;32.72;13.05;;;7.90;99.90;;;;;;5011700;28;20041;-66
2021/03/04 05:09:32;;;;;;;28.08;13.20;;;7.90;99.90;;;;;;5007642;28;20532;-69
2021/03/04 05:11:59;;;;;;;28.05;11.88;;;7.90;99.90;;;;;;5012245;28;20022;-68
2021/03/04 05:14:24;;;;;;;37.75;13.48;;;7.90;99.90;;;;;;5012350;28;20034;-67
2021/03/04 05:16:50;;;;;;;24.90;11.70;;;8.00;99.90;;;;;;5011326;28;20463;-67
2021/03/04 05:19:16;;;;;;;22.67;11.38;;;7.90;99.90;;;;;;5012017;28;20046;-67
2021/03/04 05:21:41;;;;;;;26.08;11.77;;;7.90;99.90;;;;;;5012587;28;20194;-68
2021/03/04 05:24:08;;;;;;;23.13;11.55;;;7.90;99.90;;;;;;5018304;28;20466;-63
2021/03/04 05:26:36;;;;;;;28.40;12.93;;;7.90;99.90;;;;;;5031802;28;20046;-63
2021/03/04 05:29:03;;;;;;;24.23;12.10;;;7.80;99.90;;;;;;5016393;28;20149;-63
2021/03/04 05:31:30;;;;;;;27.20;13.15;;;7.90;99.90;;;;;;5012318;28;20521;-65
2021/03/04 05:33:56;;;;;;;26.13;12.35;;;7.70;99.90;;;;;;5011925;28;20088;-65
2021/03/04 05:36:21;;;;;;;29.38;11.68;;;7.80;99.90;;;;;;5011828;28;20038;-62
2021/03/04 05:38:47;;;;;;;27.73;13.07;;;7.80;99.90;;;;;;5011780;28;20025;-65
2021/03/04 05:41:17;;;;;;;24.42;11.57;;;7.80;99.90;;;;;;5010425;28;20407;-64
2021/03/04 05:43:42;;;;;;;29.13;11.82;;;7.90;99.90;;;;;;5000522;28;20030;-65
2021/03/04 05:46:09;;;;;;;28.20;12.38;;;7.90;99.90;;;;;;4994186;28;20502;-65
2021/03/04 05:48:37;;;;;;;26.77;11.60;;;7.90;99.90;;;;;;5010845;28;20034;-63
2021/03/04 05:51:05;;;;;;;25.85;12.75;;;8.00;99.90;;;;;;5010745;28;20092;-65
2021/03/04 05:53:32;;;;;;;23.15;12.77;;;8.00;99.90;;;;;;5001372;28;20060;-64
2021/03/04 05:56:00;;;;;;;26.00;11.50;;;8.00;99.90;;;;;;5013686;28;20037;-65
2021/03/04 05:58:27;;;;;;;22.55;11.43;;;8.00;99.90;;;;;;5008146;28;20057;-66
2021/03/04 06:00:53;;;;;;;27.88;12.73;;;7.90;99.90;;;;;;4996001;28;20033;-66
2021/03/04 06:03:20;;;;;;;28.10;12.15;;;7.90;99.90;;;;;;4995762;28;20030;-67
2021/03/04 06:05:48;;;;;;;22.20;11.63;;;7.80;99.90;;;;;;4997532;28;20045;-67
2021/03/04 06:08:14;;;;;;;25.95;12.32;;;7.70;99.90;;;;;;5015412;28;20471;-67
2021/03/04 06:10:40;;;;;;;27.70;13.32;;;7.70;99.90;;;;;;5014880;28;20045;-68
2021/03/04 06:13:06;;;;;;;25.63;12.43;;;7.70;99.90;;;;;;5015145;28;20032;-68
2021/03/04 06:15:31;;;;;;;29.60;12.13;;;7.60;99.90;;;;;;5013619;28;20553;-67
2021/03/04 06:18:00;;;;;;;30.55;12.25;;;7.60;99.90;;;;;;5015100;28;20030;-67
2021/03/04 06:20:38;;;;;;;26.55;12.07;;;7.60;99.90;;;;;;5015156;28;20553;-67
2021/03/04 06:23:06;;;;;;;25.55;12.20;;;7.60;99.90;;;;;;5014967;28;20033;-68
2021/03/04 06:25:32;;;;;;;25.80;12.52;;;7.60;99.90;;;;;;5032566;28;20056;-66
2021/03/04 06:27:58;;;;;;;25.10;12.90;;;7.60;99.90;;;;;;5000209;28;20030;-66
2021/03/04 06:30:32;;;;;;;26.83;12.70;;;7.50;99.90;;;;;;5014768;28;20068;-68
2021/03/04 06:33:00;;;;;;;25.50;13.60;;;7.50;99.90;;;;;;5014734;28;20113;-67
2021/03/04 06:35:38;;;;;;;29.42;13.02;;;7.60;99.90;;;;;;5013474;28;20513;-66
2021/03/04 06:38:25;;;;;;;30.73;15.00;;;7.60;99.90;;;;;;5014843;28;20122;-67
2021/03/04 06:40:54;;;;;;;25.05;12.60;;;7.70;99.90;;;;;;5013452;28;20048;-67
2021/03/04 06:43:22;;;;;;;29.55;12.77;;;7.70;99.90;;;;;;4999299;28;20045;-67
2021/03/04 06:45:49;;;;;;;30.27;12.43;;;7.80;99.90;;;;;;5014032;28;20502;-68
2021/03/04 06:48:22;;;;;;;29.63;12.80;;;7.80;99.90;;;;;;5006237;28;20050;-67
2021/03/04 06:50:56;;;;;;;24.40;12.52;;;7.70;99.90;;;;;;5014303;28;20438;-67
2021/03/04 06:53:23;;;;;;;30.20;13.38;;;7.60;99.90;;;;;;5014646;28;20038;-66
2021/03/04 06:56:04;;;;;;;27.08;12.25;;;7.70;99.90;;;;;;5014215;28;20459;-67
2021/03/04 06:58:35;;;;;;;31.60;13.95;;;7.70;99.90;;;;;;5013082;28;20034;-67
2021/03/04 07:01:14;;;;;;;27.08;13.02;;;7.70;99.90;;;;;;5012888;28;20038;-67
2021/03/04 07:03:49;;;;;;;28.33;13.05;;;7.70;99.90;;;;;;4997989;28;20117;-67
2021/03/04 07:06:24;;;;;;;28.17;12.98;;;7.70;99.90;;;;;;5014237;28;20495;-67
2021/03/04 07:08:52;;;;;;;28.70;14.25;;;7.80;99.90;;;;;;5014133;28;20038;-67
2021/03/04 07:11:24;;;;;;;25.15;12.73;;;7.80;99.90;;;;;;4996442;28;20026;-68
2021/03/04 07:13:50;;;;;;;;;;;7.80;99.90;;;;;;5015919;28;20485;-67
2021/03/04 07:16:27;;;;;;;28.90;12.40;;;7.80;99.90;;;;;;4996567;28;20363;-68
2021/03/04 07:18:58;;;;;;;33.25;13.23;;;7.90;99.90;;;;;;4980092;28;20053;-68
2021/03/04 07:21:27;;;;;;;28.20;13.07;;;8.00;99.90;;;;;;5013780;28;20022;-67
2021/03/04 07:23:54;;;;;;;24.27;12.85;;;8.00;99.90;;;;;;5000498;28;20091;-68
2021/03/04 07:26:20;;;;;;;31.35;14.80;;;8.00;99.90;;;;;;5033064;28;20049;-68
2021/03/04 07:28:48;;;;;;;25.63;13.38;;;8.10;99.90;;;;;;5033699;28;20072;-68
2021/03/04 07:31:15;;;;;;;29.52;13.00;;;8.10;99.90;;;;;;5033422;28;20449;-67
2021/03/04 07:33:47;;;;;;;32.45;14.15;;;8.10;99.90;;;;;;5015867;28;20120;-50
2021/03/04 07:36:18;;;;;;;27.75;14.23;;;8.20;99.90;;;;;;5033368;28;20033;-45
2021/03/04 07:38:52;;;;;;;;;;;8.30;99.90;;;;;;5034126;28;20021;-49
2021/03/04 07:41:18;;;;;;;30.13;13.95;;;8.30;99.90;;;;;;5033212;28;19913;-65
2021/03/04 07:43:56;;;;;;;36.75;14.32;;;8.30;99.90;;;;;;5015590;28;20030;-65
2021/03/04 07:46:43;;;;;;;33.28;14.40;;;8.30;99.90;;;;;;5016697;28;20033;-65
2021/03/04 07:49:10;;;;;;;26.30;13.77;;;8.40;99.90;;;;;;5033254;28;20048;-65
2021/03/04 07:51:47;;;;;;;27.90;13.93;;;8.30;99.90;;;;;;5032951;28;20021;-66
2021/03/04 07:54:26;;;;;;;26.95;13.75;;;8.30;99.90;;;;;;5008177;28;20022;-66
2021/03/04 07:57:10;;;;;;;29.05;15.35;;;8.40;99.90;;;;;;5012253;28;20034;-65
2021/03/04 07:59:56;;;;;;;30.73;14.23;;;8.30;99.90;;;;;;5013181;28;20030;-66
2021/03/04 08:02:33;;;;;;;28.67;13.93;;;8.30;99.90;;;;;;5012049;28;20033;-65
2021/03/04 08:05:11;;;;;;;27.13;13.77;;;8.50;99.90;;;;;;5013031;28;20033;-64
2021/03/04 08:07:40;;;;;;;29.15;14.57;;;8.50;99.90;;;;;;5012581;28;20034;-65
2021/03/04 08:10:13;;;;;;;25.67;13.27;;;8.50;99.90;;;;;;5012909;28;20026;-65
2021/03/04 08:12:52;;;;;;;32.15;13.77;;;8.60;99.90;;;;;;5012081;28;20033;-66
2021/03/04 08:15:21;;;;;;;28.65;13.93;;;8.80;99.90;;;;;;5013211;28;20048;-65
2021/03/04 08:17:47;;;;;;;30.70;12.15;;;8.90;99.90;;;;;;5013074;28;20392;-65
2021/03/04 08:20:18;;;;;;;34.75;14.40;;;8.80;99.90;;;;;;5011711;28;20383;-66
2021/03/04 08:22:47;;;;;;;25.00;12.45;;;9.00;99.90;;;;;;4995569;28;20030;-64
2021/03/04 08:25:28;;;;;;;26.42;12.93;;;9.00;99.90;;;;;;5027285;28;20248;-64
2021/03/04 08:27:55;;;;;;;30.58;13.63;;;9.10;99.90;;;;;;5016694;28;20116;-64
2021/03/04 08:30:36;;;;;;;25.25;12.45;;;9.20;99.90;;;;;;5015018;28;20041;-63
2021/03/04 08:33:07;;;;;;;27.73;12.80;;;9.30;99.90;;;;;;5032279;28;20083;-65
2021/03/04 08:35:37;;;;;;;28.02;13.35;;;9.30;99.90;;;;;;5032417;28;20030;-64
2021/03/04 08:38:09;;;;;;;31.15;11.85;;;9.50;99.90;;;;;;5032786;28;20034;-65
2021/03/04 08:40:41;;;;;;;28.45;12.40;;;9.70;99.90;;;;;;5032364;28;20037;-65
2021/03/04 08:43:28;;;;;;;28.83;12.77;;;9.90;99.90;;;;;;5032175;28;20041;-65
2021/03/04 08:46:04;;;;;;;26.33;13.13;;;9.80;99.90;;;;;;5032259;28;20080;-65
2021/03/04 08:48:30;;;;;;;26.73;11.73;;;9.80;99.90;;;;;;5032338;28;20032;-65
2021/03/04 08:51:03;;;;;;;28.60;11.73;;;10.10;99.90;;;;;;5032438;28;20061;-64
2021/03/04 08:53:32;;;;;;;17.92;9.85;;;10.20;99.90;;;;;;5014098;28;20067;-65
2021/03/04 08:56:02;;;;;;;21.00;10.07;;;10.40;99.90;;;;;;5012687;28;20109;-65
2021/03/04 08:58:30;;;;;;;22.90;11.00;;;10.50;99.90;;;;;;5012087;28;20034;-64
2021/03/04 09:01:04;;;;;;;23.00;9.95;;;10.70;99.90;;;;;;5012468;28;20030;-64
2021/03/04 09:03:39;;;;;;;16.80;9.13;;;10.70;99.90;;;;;;5012213;28;20026;-65
2021/03/04 09:06:16;;;;;;;22.13;9.88;;;10.90;99.90;;;;;;4997725;28;20030;-64
2021/03/04 09:08:49;;;;;;;17.85;8.80;;;11.10;99.90;;;;;;5012507;28;20025;-65
2021/03/04 09:11:38;;;;;;;18.67;8.82;;;11.20;99.90;;;;;;5012412;28;20033;-65
2021/03/04 09:14:05;;;;;;;17.15;8.82;;;11.40;99.90;;;;;;5012246;28;20037;-64
2021/03/04 09:16:43;;;;;;;19.23;9.68;;;11.40;99.90;;;;;;5012268;28;20402;-63
2021/03/04 09:19:22;;;;;;;20.52;9.13;;;11.50;99.90;;;;;;5010683;28;20542;-64
2021/03/04 09:21:48;;;;;;;26.63;9.52;;;11.40;99.90;;;;;;5012192;28;20510;-65
2021/03/04 09:24:14;;;;;;;21.13;9.02;;;11.50;99.90;;;;;;5019070;28;20029;-64
2021/03/04 09:26:40;;;;;;;18.15;8.65;;;11.60;99.80;;;;;;5031523;28;20111;-65
2021/03/04 09:29:06;;;;;;;19.77;9.50;;;11.80;99.90;;;;;;5031646;28;20530;-64
2021/03/04 09:31:32;;;;;;;24.30;9.50;;;12.00;99.00;;;;;;5032050;28;20037;-65
2021/03/04 09:34:02;;;;;;;23.42;8.75;;;12.10;98.50;;;;;;5032007;28;20046;-66
2021/03/04 09:36:27;;;;;;;21.25;9.27;;;12.00;98.80;;;;;;5031923;28;20026;-64
2021/03/04 09:38:55;;;;;;;15.88;8.18;;;12.20;98.80;;;;;;5035234;28;20033;-64
2021/03/04 09:41:24;;;;;;;18.65;9.25;;;12.30;98.80;;;;;;5035404;28;20115;-63
2021/03/04 09:44:02;;;;;;;22.40;9.50;;;12.10;99.30;;;;;;5017624;28;20029;-63
2021/03/04 09:46:38;;;;;;;21.42;9.80;;;12.10;99.30;;;;;;5017043;28;20061;-66
2021/03/04 09:49:15;;;;;;;23.08;9.60;;;12.30;98.90;;;;;;4998560;28;20018;-64
2021/03/04 09:51:45;;;;;;;18.00;8.23;;;12.40;98.80;;;;;;5015207;28;20037;-65
2021/03/04 09:54:24;;;;;;;24.53;8.93;;;12.70;97.20;;;;;;5002616;28;20105;-64
2021/03/04 09:57:09;;;;;;;19.13;8.95;;;12.80;97.60;;;;;;5014253;28;20034;-64
2021/03/04 09:59:53;;;;;;;19.45;8.63;;;12.90;97.80;;;;;;4981700;28;20399;-63
2021/03/04 10:02:25;;;;;;;19.73;9.10;;;13.00;96.90;;;;;;5015371;28;20049;-64
2021/03/04 10:04:57;;;;;;;22.75;8.90;;;12.60;97.60;;;;;;4998572;28;20034;-64
2021/03/04 10:07:28;;;;;;;24.35;8.95;;;12.80;97.80;;;;;;5015322;28;20099;-63
2021/03/04 10:09:55;;;;;;;22.33;8.93;;;12.80;97.60;;;;;;5014896;28;20104;-64
2021/03/04 10:12:22;;;;;;;18.75;8.48;;;12.90;97.70;;;;;;5014883;28;20164;-64
2021/03/04 10:14:52;;;;;;;18.13;8.23;;;12.90;97.30;;;;;;5014948;28;20113;-64
2021/03/04 10:17:19;;;;;;;16.75;8.90;;;13.00;97.50;;;;;;4981147;28;20033;-63
2021/03/04 10:19:45;;;;;;;18.98;8.50;;;12.90;97.90;;;;;;5014903;28;20025;-64
2021/03/04 10:22:11;;;;;;;22.27;9.35;;;13.10;98.30;;;;;;5014444;28;20225;-63
2021/03/04 10:24:39;;;;;;;16.65;8.50;;;13.40;97.70;;;;;;5013914;28;20034;-63
2021/03/04 10:27:06;;;;;;;21.35;8.02;;;13.50;96.70;;;;;;5014378;28;20486;-64
2021/03/04 10:29:34;;;;;;;17.33;8.10;;;13.70;96.40;;;;;;5014687;28;20045;-63
2021/03/04 10:32:01;;;;;;;19.63;8.80;;;13.90;96.50;;;;;;4996607;28;20455;-63
2021/03/04 10:34:27;;;;;;;19.55;7.60;;;13.90;96.20;;;;;;4996777;28;20041;-64
2021/03/04 10:36:53;;;;;;;17.02;8.02;;;14.00;95.40;;;;;;5014718;28;20033;-64
2021/03/04 10:39:21;;;;;;;15.63;7.45;;;14.10;96.00;;;;;;5013068;28;20033;-64
2021/03/04 10:41:48;;;;;;;15.88;6.88;;;14.20;95.10;;;;;;5014649;28;20100;-65
2021/03/04 10:44:15;;;;;;;21.52;8.25;;;14.30;94.60;;;;;;5014705;28;20065;-64
2021/03/04 10:46:41;;;;;;;16.15;7.97;;;14.40;94.60;;;;;;5014699;28;20030;-65
2021/03/04 10:49:08;;;;;;;14.10;7.35;;;14.80;94.30;;;;;;5013707;28;20064;-64
2021/03/04 10:51:35;;;;;;;17.20;7.30;;;15.10;93.00;;;;;;5014518;28;20026;-63
2021/03/04 10:54:02;;;;;;;21.88;7.30;;;15.10;92.90;;;;;;5014223;28;20026;-65
2021/03/04 10:56:28;;;;;;;20.83;7.38;;;15.40;93.10;;;;;;4996715;28;20079;-65
2021/03/04 10:58:54;;;;;;;16.33;6.80;;;15.50;91.70;;;;;;5014064;28;20069;-64
2021/03/04 11:01:21;;;;;;;17.20;7.45;;;15.40;92.00;;;;;;5014365;28;20060;-65
2021/03/04 11:03:46;;;;;;;15.82;7.32;;;15.50;91.50;;;;;;5016868;28;20034;-64
2021/03/04 11:06:12;;;;;;;19.98;7.72;;;15.80;91.00;;;;;;5013676;28;20095;-63
2021/03/04 11:08:39;;;;;;;21.50;7.65;;;15.90;91.10;;;;;;5014135;28;20486;-63
2021/03/04 11:11:05;;;;;;;18.38;6.75;;;16.00;90.40;;;;;;5014178;28;20177;-63
2021/03/04 11:13:31;;;;;;;15.35;7.13;;;16.10;90.70;;;;;;4980577;28;20169;-64
2021/03/04 11:15:57;;;;;;;15.05;7.50;;;16.00;89.90;;;;;;5013795;28;20113;-62
2021/03/04 11:18:23;;;;;;;22.55;7.65;;;16.10;90.40;;;;;;5013486;28;20034;-61
2021/03/04 11:20:49;;;;;;;18.92;6.78;;;16.00;89.80;;;;;;5013135;28;20491;-63
2021/03/04 11:23:15;;;;;;;19.48;7.70;;;16.30;88.10;;;;;;5013698;28;20055;-63
2021/03/04 11:25:41;;;;;;;19.85;6.88;;;16.60;86.40;;;;;;5032670;28;20524;-61
2021/03/04 11:28:08;;;;;;;15.77;6.63;;;16.80;84.70;;;;;;5033649;28;20475;-67
2021/03/04 11:30:35;;;;;;;12.98;5.70;;;16.90;83.20;;;;;;5033303;28;20037;-63
2021/03/04 11:33:04;;;;;;;18.27;6.53;;;17.30;81.80;;;;;;5033619;28;20038;-62
2021/03/04 11:35:30;;;;;;;14.80;6.53;;;17.00;80.90;;;;;;5033361;28;20061;-62
2021/03/04 11:37:56;;;;;;;16.05;6.15;;;17.80;80.20;;;;;;5015951;28;20025;-62
2021/03/04 11:40:23;;;;;;;17.15;6.50;;;18.40;74.50;;;;;;5033039;28;20491;-62
2021/03/04 11:42:49;;;;;;;12.82;6.35;;;18.60;73.00;;;;;;5032927;28;20034;-61
2021/03/04 11:45:16;;;;;;;21.83;6.38;;;18.40;73.50;;;;;;5033120;28;20061;-61
2021/03/04 11:47:42;;;;;;;17.00;6.43;;;18.00;75.50;;;;;;5033205;28;20033;-62
2021/03/04 11:50:09;;;;;;;16.85;5.35;;;18.10;76.70;;;;;;5033154;28;20386;-62
2021/03/04 11:52:35;;;;;;;17.30;6.38;;;18.60;72.10;;;;;;5033057;28;20570;-62
2021/03/04 11:55:03;;;;;;;15.93;5.93;;;18.20;71.70;;;;;;5019053;28;20038;-63
2021/03/04 11:57:29;;;;;;;13.55;5.53;;;17.30;74.80;;;;;;5013313;28;20080;-62
2021/03/04 11:59:56;;;;;;;19.80;6.20;;;16.70;77.20;;;;;;5012451;28;20046;-62
2021/03/04 12:02:23;;;;;;;16.70;6.78;;;16.90;77.60;;;;;;4996007;28;20030;-61
2021/03/04 12:04:50;;;;;;;16.73;6.70;;;16.80;78.00;;;;;;5013183;28;20502;-62
2021/03/04 12:07:16;;;;;;;13.50;6.13;;;16.50;80.40;;;;;;5012668;28;20053;-61
2021/03/04 12:09:41;;;;;;;13.30;5.97;;;16.40;81.70;;;;;;5012538;28;20037;-62
2021/03/04 12:12:08;;;;;;;14.07;6.28;;;15.80;83.50;;;;;;5012141;28;20126;-62
2021/03/04 12:14:33;;;;;;;15.32;6.30;;;16.20;83.30;;;;;;5012408;28;20037;-62
2021/03/04 12:16:59;;;;;;;14.27;5.30;;;16.90;79.80;;;;;;4978610;28;20032;-62
2021/03/04 12:19:25;;;;;;;14.60;5.47;;;18.00;76.10;;;;;;5012475;28;20076;-61
2021/03/04 12:21:50;;;;;;;15.30;5.95;;;19.40;69.80;;;;;;5011538;28;20562;-61
2021/03/04 12:24:16;;;;;;;15.13;6.72;;;20.80;67.10;;;;;;5020240;28;20044;-61
2021/03/04 12:26:46;;;;;;;16.23;5.72;;;20.50;62.60;;;;;;5014491;28;20128;-61
2021/03/04 12:29:12;;;;;;;13.88;6.00;;;19.60;64.40;;;;;;5032525;28;20029;-61
2021/03/04 12:31:39;;;;;;;14.82;6.47;;;18.60;67.50;;;;;;5032562;28;20351;-61
2021/03/04 12:34:05;;;;;;;21.15;6.30;;;17.40;72.30;;;;;;5032502;28;20056;-61
2021/03/04 12:36:32;;;;;;;14.98;6.65;;;16.30;78.90;;;;;;5032221;28;20025;-62
2021/03/04 12:38:58;;;;;;;20.55;6.78;;;15.80;82.10;;;;;;5032417;28;20033;-65
2021/03/04 12:41:24;;;;;;;19.17;6.68;;;15.60;85.10;;;;;;5026220;28;20025;-62
2021/03/04 12:43:50;;;;;;;12.93;6.18;;;15.50;90.50;;;;;;5012368;28;20034;-62
2021/03/04 12:46:15;;;;;;;16.77;6.53;;;15.20;91.90;;;;;;5012122;28;20041;-62